createdAt,value
2018-03-04T08:32:26.956Z,15.13
2018-03-04T08:34:54.419Z,16.30
2018-03-04T08:37:21.889Z,17.15
2018-03-04T08:39:49.357Z,15.43
2018-03-04T08:49:37.843Z,14.40
2018-03-04T08:56:59.321Z,11.63
2018-03-04T08:59:26.768Z,12.87
2018-03-04T09:01:54.228Z,13.60
2018-03-04T09:11:44.568Z,12.03
2018-03-04T09:16:39.125Z,12.90
2018-03-04T09:24:08.426Z,13.03
2018-03-04T09:26:37.469Z,11.30
2018-03-04T09:29:05.057Z,11.50
2018-03-04T09:31:32.515Z,12.90
2018-03-04T09:36:28.954Z,11.30
2018-03-04T09:38:56.903Z,10.30
2018-03-04T09:41:25.281Z,11.33
2018-03-04T09:43:53.627Z,10.30
2018-03-04T09:46:21.851Z,11.97
2018-03-04T09:48:50.773Z,10.90
2018-03-04T10:03:38.449Z,13.07
2018-03-04T10:06:06.670Z,10.95
2018-03-04T10:08:34.694Z,12.00
2018-03-04T10:11:03.499Z,11.67
2018-03-04T10:13:33.559Z,11.20
2018-03-04T10:16:02.195Z,10.07
2018-03-04T10:18:31.361Z,9.17
2018-03-04T10:20:59.286Z,9.83
2018-03-04T10:23:27.880Z,9.67
2018-03-04T10:25:55.984Z,8.70
2018-03-04T10:28:24.386Z,9.30
2018-03-04T10:30:52.654Z,8.40
2018-03-04T10:33:21.008Z,8.00
2018-03-04T10:35:49.502Z,8.03
2018-03-04T10:38:18.183Z,7.47
2018-03-04T10:40:46.165Z,8.00
2018-03-04T10:43:14.660Z,7.70
2018-03-04T10:45:44.237Z,7.73
2018-03-04T10:48:14.093Z,8.00
2018-03-04T10:50:45.494Z,7.40
2018-03-04T10:53:15.767Z,7.80
2018-03-04T10:55:45.295Z,7.07
2018-03-04T10:58:14.940Z,6.17
2018-03-04T11:00:47.334Z,5.20
2018-03-04T11:03:18.690Z,5.70
2018-03-04T11:05:46.843Z,6.43
2018-03-04T11:08:15.028Z,5.70
2018-03-04T11:10:44.299Z,4.90
2018-03-04T11:20:37.547Z,3.57
2018-03-04T11:23:06.413Z,3.77
2018-03-04T11:25:34.953Z,4.07
2018-03-04T11:30:36.685Z,4.37
2018-03-04T11:33:06.956Z,4.53
2018-03-04T11:35:37.854Z,4.30
2018-03-04T11:38:07.995Z,3.40
2018-03-04T11:52:58.158Z,2.03
